Time;durP1;ratioP1;P1;durP2;ratioP2;P2;SDS_P1;SDS_P2;PMS_P1;PMS_P2;Temp;Humidity;BMP_temperature;BMP_pressure;BME280_temperature;BME280_humidity;BME280_pressure;Samples;Min_cycle;Max_cycle;Signal;HPM_P1;HPM_P2
2022/03/01 00:02:31;;;;;;;56.90;22.13;;;;;;;0.14;72.79;102816.72;10516076;28;20257;-63
2022/03/01 00:07:34;;;;;;;61.87;25.03;;;;;;;0.20;74.34;102803.53;10501207;28;20242;-64
2022/03/01 00:12:38;;;;;;;56.87;22.80;;;;;;;0.19;74.81;102817.09;10526288;28;20212;-65
2022/03/01 00:17:43;;;;;;;54.93;24.17;;;;;;;0.15;74.94;102822.75;10538763;28;20295;-64
2022/03/01 00:22:46;;;;;;;57.17;24.50;;;;;;;0.08;76.42;102811.22;10538760;28;20227;-65
2022/03/01 00:27:49;;;;;;;66.60;25.80;;;;;;;0.02;76.93;102810.75;10538504;28;20319;-64
2022/03/01 00:32:54;;;;;;;61.30;25.27;;;;;;;0.01;77.00;102809.00;10557320;28;20237;-62
2022/03/01 00:37:57;;;;;;;53.47;22.90;;;;;;;0.03;76.14;102805.75;10541824;28;20361;-65
2022/03/01 00:43:01;;;;;;;54.23;22.07;;;;;;;0.07;75.97;102800.91;10541201;28;20769;-67
2022/03/01 00:48:05;;;;;;;53.07;22.77;;;;;;;0.00;76.69;102795.34;10541335;28;20249;-65
2022/03/01 00:53:09;;;;;;;52.53;20.63;;;;;;;-0.07;76.01;102790.56;10541283;28;20226;-63
2022/03/01 00:58:12;;;;;;;56.17;20.87;;;;;;;-0.24;76.18;102795.25;10539670;28;20548;-66
2022/03/01 01:03:17;;;;;;;52.10;20.57;;;;;;;-0.39;75.39;102791.59;10541092;28;20215;-65
2022/03/01 01:08:21;;;;;;;52.47;19.97;;;;;;;-0.46;75.75;102792.81;10546149;28;20546;-64
2022/03/01 01:13:24;;;;;;;49.87;20.77;;;;;;;-0.40;77.52;102790.69;10548550;28;20675;-65
2022/03/01 01:18:29;;;;;;;50.50;20.47;;;;;;;-0.39;76.70;102779.75;10548713;28;20222;-64
2022/03/01 01:23:32;;;;;;;45.47;19.47;;;;;;;-0.43;76.58;102785.38;10548260;28;20215;-68
2022/03/01 01:28:35;;;;;;;44.33;18.80;;;;;;;-0.48;77.07;102785.81;10547620;28;20231;-64
2022/03/01 01:33:40;;;;;;;44.43;19.00;;;;;;;-0.56;77.60;102785.28;10547910;28;20230;-65
2022/03/01 01:38:43;;;;;;;51.33;20.17;;;;;;;-0.62;78.64;102797.56;10547040;28;20231;-64
2022/03/01 01:43:46;;;;;;;47.27;20.33;;;;;;;-0.69;78.77;102789.38;10546936;28;20230;-67
2022/03/01 01:48:51;;;;;;;50.07;19.20;;;;;;;-0.71;79.85;102788.38;10543887;28;20674;-66
2022/03/01 01:53:56;;;;;;;44.00;19.97;;;;;;;-0.74;79.18;102791.56;10543697;28;20215;-66
2022/03/01 01:58:59;;;;;;;48.53;19.70;;;;;;;-0.78;79.45;102793.78;10543474;28;20306;-65
2022/03/01 02:04:04;;;;;;;45.67;20.30;;;;;;;-0.89;79.57;102793.00;10191696;28;10000428;-66
2022/03/01 02:09:07;;;;;;;49.63;21.53;;;;;;;-0.91;80.26;102793.63;10542821;28;20321;-63
2022/03/01 02:14:10;;;;;;;49.40;21.20;;;;;;;-0.90;81.39;102782.69;10542666;28;20219;-65
2022/03/01 02:19:16;;;;;;;51.73;22.13;;;;;;;-1.01;80.71;102786.97;10541882;28;20540;-65
2022/03/01 02:24:22;;;;;;;56.10;21.37;;;;;;;-1.04;81.22;102779.13;10542331;28;20227;-68
2022/03/01 02:29:26;;;;;;;51.43;20.10;;;;;;;-1.07;81.91;102778.00;10541972;28;20557;-63
2022/03/01 02:34:29;;;;;;;47.93;20.60;;;;;;;-1.08;82.00;102769.47;10542168;28;20208;-66
2022/03/01 02:39:34;;;;;;;46.40;19.63;;;;;;;-1.12;82.07;102771.69;10542014;28;20239;-66
2022/03/01 02:44:38;;;;;;;52.63;19.70;;;;;;;-1.10;82.59;102763.34;10542194;28;20560;-66
2022/03/01 02:49:41;;;;;;;48.97;19.43;;;;;;;-1.09;82.29;102761.69;10541826;28;20851;-63
2022/03/01 02:54:46;;;;;;;43.40;18.87;;;;;;;-1.21;82.66;102754.03;10541385;28;20219;-64
2022/03/01 02:59:49;;;;;;;49.67;20.83;;;;;;;-1.30;83.15;102753.34;10544390;28;20215;-66
2022/03/01 03:04:52;;;;;;;43.97;18.23;;;;;;;-1.32;81.70;102745.59;10544174;28;20241;-67
2022/03/01 03:09:57;;;;;;;44.00;18.57;;;;;;;-1.27;82.83;102743.38;10543611;28;20663;-66
2022/03/01 03:15:00;;;;;;;46.43;19.47;;;;;;;-1.29;83.03;102739.81;10543448;28;20211;-63
2022/03/01 03:20:04;;;;;;;48.67;20.30;;;;;;;-1.42;83.62;102737.13;10543763;28;20554;-64
2022/03/01 03:25:10;;;;;;;45.67;20.77;;;;;;;-1.49;84.04;102735.78;10543233;28;20219;-65
2022/03/01 03:30:13;;;;;;;50.57;19.80;;;;;;;-1.44;85.15;102728.50;10542870;28;20231;-66
2022/03/01 03:35:16;;;;;;;55.17;21.53;;;;;;;-1.50;84.92;102734.00;10542832;28;20243;-66
2022/03/01 03:40:21;;;;;;;51.33;20.43;;;;;;;-1.52;85.81;102730.44;10542501;28;20654;-65
2022/03/01 03:45:27;;;;;;;56.57;22.50;;;;;;;-1.56;86.40;102725.91;10542855;28;20226;-67
2022/03/01 03:50:30;;;;;;;44.10;20.80;;;;;;;-1.62;86.84;102719.44;10542583;28;20220;-63
2022/03/01 03:55:35;;;;;;;57.83;23.13;;;;;;;-1.64;87.08;102718.47;10542680;28;20546;-66
2022/03/01 04:00:38;;;;;;;48.83;21.10;;;;;;;-1.70;88.08;102720.53;10542306;28;20219;-64
2022/03/01 04:05:41;;;;;;;51.93;20.40;;;;;;;-1.72;87.64;102722.06;10542110;28;20647;-66
2022/03/01 04:10:46;;;;;;;51.03;20.13;;;;;;;-1.77;87.42;102719.19;10542111;28;20561;-68
2022/03/01 04:15:49;;;;;;;44.60;19.03;;;;;;;-1.81;87.30;102719.69;10541903;28;20205;-64
2022/03/01 04:20:52;;;;;;;49.20;19.37;;;;;;;-1.79;86.48;102710.53;10542135;28;20196;-66
2022/03/01 04:25:57;;;;;;;43.30;17.93;;;;;;;-1.78;86.49;102711.44;10541893;28;20209;-66
2022/03/01 04:31:00;;;;;;;41.43;17.07;;;;;;;-1.84;86.22;102714.38;10541682;28;20205;-64
2022/03/01 04:36:06;;;;;;;62.70;24.50;;;;;;;-1.87;84.98;102708.19;10541667;28;20237;-64
2022/03/01 04:41:10;;;;;;;48.50;18.77;;;;;;;-1.94;85.83;102711.00;10544247;28;20742;-66
2022/03/01 04:46:18;;;;;;;42.30;19.00;;;;;;;-1.94;86.16;102705.94;10549643;28;20206;-68
2022/03/01 04:51:22;;;;;;;50.73;19.03;;;;;;;-1.92;86.67;102706.94;10549449;28;20500;-65
2022/03/01 04:56:26;;;;;;;43.67;18.30;;;;;;;-1.98;86.78;102701.34;10549317;28;20205;-69
2022/03/01 05:01:30;;;;;;;42.97;19.07;;;;;;;-2.10;85.74;102701.31;10549141;28;20212;-67
2022/03/01 05:06:33;;;;;;;44.93;19.43;;;;;;;-2.14;87.71;102693.34;10549458;28;20196;-64
2022/03/01 05:11:38;;;;;;;43.63;19.10;;;;;;;-2.15;87.42;102699.16;10548767;28;20253;-64
2022/03/01 05:16:41;;;;;;;46.70;19.37;;;;;;;-2.16;88.79;102702.50;10548597;28;20183;-68
2022/03/01 05:21:45;;;;;;;51.03;19.90;;;;;;;-2.17;89.81;102710.91;10548247;28;20219;-66
2022/03/01 05:26:50;;;;;;;50.53;20.27;;;;;;;-2.19;88.06;102708.22;10547163;28;20203;-67
2022/03/01 05:31:53;;;;;;;43.93;19.97;;;;;;;-2.20;87.76;102698.81;10547652;28;20205;-65
2022/03/01 05:36:56;;;;;;;49.00;20.17;;;;;;;-2.25;88.64;102697.56;10545941;28;20242;-67
2022/03/01 05:42:01;;;;;;;49.33;20.93;;;;;;;-2.26;88.35;102697.47;10546771;28;20709;-64
2022/03/01 05:47:06;;;;;;;46.80;20.33;;;;;;;-2.22;89.85;102702.91;10539095;28;21782;-64
2022/03/01 05:52:10;;;;;;;47.67;21.60;;;;;;;-2.13;89.53;102700.19;10543825;28;20188;-65
2022/03/01 05:57:14;;;;;;;45.30;20.20;;;;;;;-2.10;89.02;102698.75;10545688;28;20194;-67
2022/03/01 06:02:18;;;;;;;48.07;20.40;;;;;;;-2.12;89.55;102699.44;10543593;28;20646;-67
2022/03/01 06:07:22;;;;;;;47.60;19.70;;;;;;;-2.08;89.92;102698.88;10544622;28;20199;-63
2022/03/01 06:12:26;;;;;;;46.47;20.20;;;;;;;-1.98;90.52;102696.28;10545193;28;20600;-66
2022/03/01 06:17:30;;;;;;;49.47;19.87;;;;;;;-1.85;89.80;102696.47;10545198;28;20184;-66
2022/03/01 06:22:33;;;;;;;46.43;19.57;;;;;;;-1.78;88.86;102691.97;10544694;28;20226;-64
2022/03/01 06:27:39;;;;;;;43.87;19.67;;;;;;;-1.67;88.67;102692.75;10543482;28;20227;-68
2022/03/01 06:32:42;;;;;;;49.30;18.67;;;;;;;-1.68;88.33;102683.38;10544276;28;20211;-65
2022/03/01 06:37:47;;;;;;;44.87;18.40;;;;;;;-1.56;87.95;102687.72;10543682;28;20227;-66
2022/03/01 06:42:51;;;;;;;39.40;18.80;;;;;;;-1.45;86.97;102684.31;10190530;28;9999848;-67
2022/03/01 06:47:55;;;;;;;48.77;18.57;;;;;;;-1.37;85.26;102690.00;10540388;28;20611;-70
2022/03/01 06:52:58;;;;;;;49.43;18.80;;;;;;;-1.30;84.72;102689.69;10537984;28;20215;-65
2022/03/01 06:58:03;;;;;;;44.63;18.60;;;;;;;-1.19;83.72;102681.16;10539800;28;20213;-67
2022/03/01 07:03:07;;;;;;;43.50;18.33;;;;;;;-1.03;84.82;102684.06;10538629;28;20223;-63
2022/03/01 07:08:11;;;;;;;45.70;16.27;;;;;;;-0.95;83.43;102682.97;10535003;28;20254;-64
2022/03/01 07:13:16;;;;;;;34.03;16.37;;;;;;;-0.82;81.08;102674.53;10539605;28;20211;-65
2022/03/01 07:18:19;;;;;;;31.93;15.07;;;;;;;-0.72;79.87;102670.22;10539547;28;20215;-66
2022/03/01 07:23:22;;;;;;;33.93;13.97;;;;;;;-0.58;78.10;102676.28;10539346;28;20219;-65
2022/03/01 07:28:27;;;;;;;35.33;14.20;;;;;;;-0.39;76.70;102666.63;10537150;28;20299;-65
2022/03/01 07:33:31;;;;;;;38.00;16.57;;;;;;;-0.29;74.84;102659.72;10539222;28;20565;-68
2022/03/01 07:38:35;;;;;;;44.33;16.27;;;;;;;-0.13;75.43;102665.13;10538926;28;20584;-66
2022/03/01 07:43:39;;;;;;;45.70;17.23;;;;;;;0.10;73.98;102660.72;10527255;28;20234;-66
2022/03/01 07:48:44;;;;;;;35.53;16.10;;;;;;;0.18;73.68;102663.00;10522143;28;20238;-66
2022/03/01 07:53:47;;;;;;;41.83;17.90;;;;;;;0.27;72.37;102655.97;10497181;28;20216;-66
2022/03/01 07:58:53;;;;;;;40.47;17.40;;;;;;;0.40;72.49;102655.16;10536466;28;20219;-63
2022/03/01 08:03:56;;;;;;;41.00;17.50;;;;;;;0.49;71.41;102651.53;10538635;28;20226;-63
2022/03/01 08:08:59;;;;;;;45.17;18.67;;;;;;;0.68;71.42;102656.19;10538880;28;20218;-66
2022/03/01 08:14:04;;;;;;;39.93;17.87;;;;;;;0.83;70.81;102650.41;10538407;28;20219;-62
2022/03/01 08:19:07;;;;;;;47.60;17.70;;;;;;;0.97;69.59;102644.53;10522074;28;20948;-62
2022/03/01 08:24:12;;;;;;;41.17;18.53;;;;;;;1.07;69.28;102643.47;10505430;28;20220;-62
2022/03/01 08:29:17;;;;;;;36.53;17.50;;;;;;;1.19;69.07;102642.56;10543955;28;20597;-62
2022/03/01 08:34:21;;;;;;;37.03;16.80;;;;;;;1.42;67.88;102653.34;10546733;28;20226;-66
2022/03/01 08:39:24;;;;;;;42.00;15.30;;;;;;;1.60;67.79;102647.75;10584703;28;20241;-64
2022/03/01 08:44:29;;;;;;;37.33;17.13;;;;;;;1.82;67.95;102644.81;10563141;28;20239;-64
2022/03/01 08:49:32;;;;;;;42.33;17.30;;;;;;;2.00;67.40;102631.44;10546721;28;20260;-65
2022/03/01 08:54:36;;;;;;;36.90;16.13;;;;;;;2.20;66.22;102638.69;10547526;28;20324;-65
2022/03/01 08:59:40;;;;;;;33.77;15.57;;;;;;;2.35;65.84;102639.59;10549380;28;20211;-65
2022/03/01 09:04:44;;;;;;;33.67;14.00;;;;;;;2.65;65.79;102637.03;10548932;28;20596;-67
2022/03/01 09:09:47;;;;;;;28.20;11.47;;;;;;;2.78;63.87;102626.72;10549126;28;20231;-65
2022/03/01 09:14:52;;;;;;;20.23;8.93;;;;;;;3.08;62.84;102616.50;10548731;28;20302;-64
2022/03/01 09:19:55;;;;;;;17.27;8.17;;;;;;;3.37;61.29;102612.97;10548348;28;20302;-66
2022/03/01 09:24:58;;;;;;;16.87;7.50;;;;;;;3.78;58.93;102604.97;10547929;28;20322;-63
2022/03/01 09:30:05;;;;;;;13.57;5.83;;;;;;;4.35;57.28;102598.56;10547478;28;20550;-64
2022/03/01 09:35:09;;;;;;;12.60;5.37;;;;;;;5.05;54.73;102589.19;10547717;28;20237;-65
2022/03/01 09:40:14;;;;;;;16.47;4.90;;;;;;;5.59;52.35;102589.19;10547262;28;20215;-63
2022/03/01 09:45:19;;;;;;;10.77;4.50;;;;;;;5.87;52.21;102578.47;10547392;28;20539;-63
2022/03/01 09:50:27;;;;;;;16.07;6.50;;;;;;;6.47;50.95;102573.38;10547091;28;20601;-66
2022/03/01 09:55:31;;;;;;;12.97;5.63;;;;;;;6.82;50.28;102558.50;10546806;28;20215;-64
2022/03/01 10:00:36;;;;;;;17.60;6.30;;;;;;;7.32;48.42;102539.81;10546353;28;20680;-70
2022/03/01 10:05:41;;;;;;;14.27;6.27;;;;;;;7.94;49.11;102536.94;10546535;28;20333;-64
2022/03/01 10:10:47;;;;;;;17.67;6.67;;;;;;;8.42;47.98;102522.28;10546041;28;20298;-65
2022/03/01 10:15:53;;;;;;;24.13;7.73;;;;;;;8.56;45.51;102514.13;10196053;28;10000516;-64
2022/03/01 10:21:03;;;;;;;16.27;6.60;;;;;;;9.20;46.30;102509.22;10545131;28;20289;-67
2022/03/01 10:26:14;;;;;;;18.43;6.30;;;;;;;9.80;45.46;102497.16;10542148;28;20243;-65
2022/03/01 10:31:22;;;;;;;10.73;5.50;;;;;;;9.88;44.35;102486.16;10542601;28;20215;-67
2022/03/01 10:36:28;;;;;;;20.43;5.93;;;;;;;10.23;42.09;102476.72;10541512;28;20326;-63
2022/03/01 10:41:34;;;;;;;14.00;6.30;;;;;;;10.53;41.87;102472.28;10540519;28;20260;-64
2022/03/01 10:46:41;;;;;;;11.10;5.03;;;;;;;10.72;40.32;102458.88;10541499;28;20230;-64
2022/03/01 10:51:49;;;;;;;12.57;5.10;;;;;;;11.27;40.55;102453.16;10541012;28;20627;-68
2022/03/01 10:56:55;;;;;;;10.03;5.03;;;;;;;11.41;41.05;102449.13;10541218;28;20194;-64
2022/03/01 11:02:00;;;;;;;12.73;4.60;;;;;;;11.34;39.31;102434.22;10540723;28;20211;-65
2022/03/01 11:07:05;;;;;;;10.60;4.93;;;;;;;11.72;40.01;102430.69;10540640;28;20264;-64
2022/03/01 11:12:11;;;;;;;10.20;4.47;;;;;;;12.42;38.50;102427.56;10540174;28;20219;-66
2022/03/01 11:17:24;;;;;;;11.10;4.63;;;;;;;12.54;37.95;102415.59;10540344;28;20194;-65
2022/03/01 11:22:31;;;;;;;11.97;4.70;;;;;;;12.68;36.94;102408.84;10510710;28;20203;-65
2022/03/01 11:27:44;;;;;;;10.10;4.73;;;;;;;13.24;37.07;102393.09;10540395;28;20217;-63
2022/03/01 11:32:55;;;;;;;11.50;5.00;;;;;;;13.66;36.82;102386.63;10539675;28;20192;-66
2022/03/01 11:38:05;;;;;;;15.07;4.80;;;;;;;14.15;35.48;102374.84;10539477;28;20235;-66
2022/03/01 11:43:17;;;;;;;10.13;4.40;;;;;;;14.58;34.16;102357.75;10539603;28;20215;-64
2022/03/01 11:48:30;;;;;;;8.67;4.30;;;;;;;14.86;33.71;102349.16;10539042;28;20195;-65
2022/03/01 11:53:36;;;;;;;11.00;4.77;;;;;;;15.09;32.82;102339.69;10539117;28;20244;-64
2022/03/01 11:58:40;;;;;;;10.17;5.07;;;;;;;14.91;33.55;102330.03;10536168;28;20196;-66
2022/03/01 12:03:44;;;;;;;12.23;4.80;;;;;;;14.85;33.66;102316.06;10506175;28;20230;-66
2022/03/01 12:08:55;;;;;;;10.80;4.50;;;;;;;15.00;33.01;102321.34;10503599;28;20195;-64
2022/03/01 12:14:03;;;;;;;12.63;4.93;;;;;;;15.77;32.08;102316.28;10536933;28;20195;-63
2022/03/01 12:19:11;;;;;;;9.53;4.70;;;;;;;15.83;31.30;102314.53;10554570;28;20203;-68
2022/03/01 12:24:15;;;;;;;8.27;4.43;;;;;;;15.92;30.82;102311.03;10511427;28;20219;-65
2022/03/01 12:29:20;;;;;;;10.07;4.73;;;;;;;16.03;30.60;102297.03;10538658;28;20517;-64
2022/03/01 12:34:27;;;;;;;8.60;4.87;;;;;;;15.52;30.88;102294.44;10542508;28;20195;-62
2022/03/01 12:39:33;;;;;;;11.30;5.27;;;;;;;14.86;32.10;102291.66;10540944;28;20215;-65
2022/03/01 12:44:37;;;;;;;10.53;4.87;;;;;;;14.44;32.89;102273.19;10541317;28;20212;-66
2022/03/01 12:49:41;;;;;;;9.00;4.37;;;;;;;13.98;33.30;102274.63;10540429;28;20195;-62
2022/03/01 12:54:48;;;;;;;9.67;5.00;;;;;;;14.13;32.45;102256.47;10540486;28;20294;-63
2022/03/01 12:59:51;;;;;;;12.47;4.97;;;;;;;13.59;32.77;102262.19;10540480;28;20390;-62
2022/03/01 13:04:56;;;;;;;18.63;4.80;;;;;;;13.68;33.39;102256.16;10547704;28;20238;-66
2022/03/01 13:10:01;;;;;;;7.43;4.40;;;;;;;13.31;32.14;102249.75;10548348;28;20216;-63
2022/03/01 13:15:05;;;;;;;9.03;5.53;;;;;;;13.10;32.73;102241.72;10548230;28;20219;-65
2022/03/01 13:20:11;;;;;;;9.17;4.30;;;;;;;13.06;33.81;102239.97;10547643;28;20560;-65
2022/03/01 13:25:15;;;;;;;10.23;4.47;;;;;;;12.98;32.45;102223.31;10547194;28;20218;-62
2022/03/01 13:30:22;;;;;;;10.83;4.37;;;;;;;12.10;32.72;102225.72;10543901;28;20295;-66
2022/03/01 13:35:29;;;;;;;7.60;3.90;;;;;;;12.38;33.66;102222.63;10530382;28;20283;-63
2022/03/01 13:40:34;;;;;;;9.27;4.73;;;;;;;12.07;33.23;102204.88;10537914;28;20212;-67
2022/03/01 13:45:39;;;;;;;9.63;4.50;;;;;;;11.91;33.77;102221.16;10546798;28;20219;-64
2022/03/01 13:50:46;;;;;;;11.50;3.93;;;;;;;11.51;34.21;102206.59;10546441;28;20211;-61
2022/03/01 13:55:53;;;;;;;13.50;5.50;;;;;;;11.16;35.54;102200.88;10546646;28;20226;-65
2022/03/01 14:00:58;;;;;;;14.27;5.23;;;;;;;10.71;36.60;102188.75;10535753;28;20214;-65
2022/03/01 14:06:08;;;;;;;10.23;5.10;;;;;;;10.08;37.23;102201.28;10529625;28;20555;-67
2022/03/01 14:11:14;;;;;;;15.90;5.97;;;;;;;10.08;36.75;102189.22;10516176;28;20244;-66
2022/03/01 14:16:20;;;;;;;8.97;3.77;;;;;;;9.63;37.81;102180.41;10541501;28;20322;-63
2022/03/01 14:21:24;;;;;;;13.20;4.33;;;;;;;8.86;40.49;102182.81;10542184;28;20250;-61
2022/03/01 14:26:28;;;;;;;10.50;4.80;;;;;;;8.60;40.23;102176.94;10567224;28;20310;-65
2022/03/01 14:31:32;;;;;;;;;;;;;;;8.17;40.00;102182.63;10542299;28;20044;-68
2022/03/01 14:36:38;;;;;;;10.97;4.43;;;;;;;7.84;41.54;102179.03;10526293;28;20225;-66
2022/03/01 14:41:41;;;;;;;15.13;5.17;;;;;;;7.67;40.95;102172.47;10507408;28;20623;-63
2022/03/01 14:46:45;;;;;;;11.60;4.90;;;;;;;7.46;42.83;102169.22;10535350;28;20243;-65
2022/03/01 14:51:50;;;;;;;12.03;4.43;;;;;;;7.30;41.61;102166.13;10540379;28;20294;-63
2022/03/01 14:56:53;;;;;;;12.30;4.90;;;;;;;7.19;42.11;102157.13;10540451;28;20682;-64
2022/03/01 15:01:57;;;;;;;14.17;4.83;;;;;;;7.02;44.72;102151.44;10540041;28;20215;-66
2022/03/01 15:07:02;;;;;;;;;;;;;;;6.91;46.30;102150.19;10540005;28;20048;-66
2022/03/01 15:12:05;;;;;;;;;;;;;;;6.74;46.16;102141.91;10533723;28;20320;-67
2022/03/01 15:17:10;;;;;;;;;;;;;;;6.61;45.05;102141.44;10540000;28;20299;-67
2022/03/01 15:22:15;;;;;;;;;;;;;;;6.49;45.05;102141.03;10536735;28;19932;-67
2022/03/01 15:27:18;;;;;;;;;;;;;;;6.40;46.29;102146.69;10539574;28;19993;-65
2022/03/01 15:32:22;;;;;;;;;;;;;;;6.22;46.24;102137.44;10539316;28;20011;-64
2022/03/01 15:37:26;;;;;;;;;;;;;;;6.06;46.40;102140.31;10539042;28;19926;-64
2022/03/01 15:42:29;;;;;;;;;;;;;;;5.98;44.35;102132.28;10538862;28;19932;-66
2022/03/01 15:47:32;;;;;;;;;;;;;;;5.92;44.65;102136.34;10534185;28;20266;-65
2022/03/01 15:52:37;;;;;;;;;;;;;;;5.76;44.67;102140.88;10538511;28;19930;-65
2022/03/01 15:57:40;;;;;;;;;;;;;;;5.67;43.46;102135.38;10536789;28;19927;-67
2022/03/01 16:02:44;;;;;;;;;;;;;;;5.50;48.03;102143.28;10538358;28;19919;-66
2022/03/01 16:07:48;;;;;;;;;;;;;;;5.42;46.41;102137.81;10533442;28;19931;-65
2022/03/01 16:12:51;;;;;;;;;;;;;;;5.25;45.31;102137.97;10538286;28;20011;-65
2022/03/01 16:18:16;;;;;;;;;;;;;;;5.18;46.18;102143.69;10537806;28;20011;-66
2022/03/01 16:23:21;;;;;;;;;;;;;;;5.09;48.24;102141.63;10552874;28;19930;-66
2022/03/01 16:28:24;;;;;;;;;;;;;;;4.90;48.17;102148.56;10580781;28;19928;-68
2022/03/01 16:33:28;;;;;;;;;;;;;;;4.76;48.93;102144.53;10578626;28;19926;-65
2022/03/01 16:38:32;;;;;;;;;;;;;;;4.61;50.68;102150.78;10543010;28;19924;-67
2022/03/01 16:43:36;;;;;;;;;;;;;;;4.57;51.42;102148.03;10546633;28;20050;-67
2022/03/01 16:48:42;;;;;;;;;;;;;;;4.42;51.16;102147.34;10546569;28;19920;-67
2022/03/01 16:53:46;;;;;;;;;;;;;;;4.35;51.46;102146.22;10546499;28;19920;-67
2022/03/01 16:58:52;;;;;;;;;;;;;;;4.32;51.10;102153.78;10545664;28;19924;-67
2022/03/01 17:03:55;;;;;;;;;;;;;;;4.25;53.62;102156.00;10540428;28;20282;-66
2022/03/01 17:08:59;;;;;;;;;;;;;;;4.19;52.45;102155.75;10543088;28;19920;-64
2022/03/01 17:14:02;;;;;;;;;;;;;;;4.10;53.87;102156.22;10545010;28;20427;-67
2022/03/01 17:19:05;;;;;;;;;;;;;;;4.04;53.87;102153.38;10545421;28;19920;-67
2022/03/01 17:24:10;;;;;;;;;;;;;;;3.91;54.14;102163.03;10545127;28;19920;-67
2022/03/01 17:29:13;;;;;;;;;;;;;;;3.82;54.82;102166.06;10544875;28;19932;-64
2022/03/01 17:34:19;;;;;;;;;;;;;;;3.83;56.70;102165.25;10544740;28;19920;-68
2022/03/01 17:39:23;;;;;;;;;;;;;;;3.69;55.25;102162.88;10544587;28;19930;-64
2022/03/01 17:44:26;;;;;;;;;;;;;;;3.58;56.50;102158.91;10545726;28;19941;-66
2022/03/01 17:49:29;;;;;;;;;;;;;;;3.48;56.04;102155.03;10545874;28;19919;-65
2022/03/01 17:54:34;;;;;;;;;;;;;;;3.39;56.13;102157.16;10544153;28;19934;-68
2022/03/01 17:59:37;;;;;;;;;;;;;;;3.39;56.68;102152.03;10543920;28;20007;-66
2022/03/01 18:04:42;;;;;;;;;;;;;;;3.30;58.70;102152.47;10520904;28;19920;-66
2022/03/01 18:09:47;;;;;;;;;;;;;;;3.23;56.73;102146.97;10535154;28;19924;-69
2022/03/01 18:14:50;;;;;;;;;;;;;;;3.09;57.20;102146.31;10540244;28;19924;-69
2022/03/01 18:19:53;;;;;;;;;;;;;;;3.13;58.43;102140.53;10531157;28;19926;-67
2022/03/01 18:24:58;;;;;;;;;;;;;;;3.07;58.40;102137.66;10541459;28;20258;-68
2022/03/01 18:30:01;;;;;;;;;;;;;;;2.92;59.91;102134.38;10542621;28;20354;-67
2022/03/01 18:35:05;;;;;;;;;;;;;;;2.74;60.88;102125.78;10544512;28;19926;-65
2022/03/01 18:40:10;;;;;;;;;;;;;;;2.62;62.64;102119.16;10584363;28;20231;-67
2022/03/01 18:45:14;;;;;;;;;;;;;;;2.46;63.07;102119.19;10584207;28;19919;-69
2022/03/01 18:50:19;;;;;;;;;;;;;;;2.51;64.40;102118.63;10583782;28;19920;-66
2022/03/01 18:55:24;;;;;;;;;;;;;;;2.46;62.38;102126.88;10583922;28;20265;-67
2022/03/01 19:00:27;;;;;;;;;;;;;;;2.38;63.39;102121.38;10556863;28;19920;-66
2022/03/01 19:05:30;;;;;;;;;;;;;;;2.19;63.30;102127.22;10524588;28;19920;-67
2022/03/01 19:10:35;;;;;;;;;;;;;;;2.16;66.12;102132.19;10498032;28;19920;-67
2022/03/01 19:15:39;;;;;;;;;;;;;;;2.07;65.21;102129.16;10530112;28;20347;-68
2022/03/01 19:20:42;;;;;;;;;;;;;;;2.06;66.12;102123.94;10525166;28;19931;-67
2022/03/01 19:26:04;;;;;;;;;;;;;;;2.09;66.51;102129.22;10569916;28;20209;-70
2022/03/01 19:31:07;;;;;;;;;;;;;;;1.93;66.44;102130.09;10581113;28;19920;-65
2022/03/01 19:36:11;;;;;;;;;;;;;;;1.90;66.83;102127.38;10579188;28;20167;-68
2022/03/01 19:41:15;;;;;;;;;;;;;;;1.78;67.23;102128.41;10579675;28;19951;-67
2022/03/01 19:46:19;;;;;;;;;;;;;;;1.72;66.99;102121.31;10580412;28;19919;-63
2022/03/01 19:51:22;;;;;;;;;;;;;;;1.56;65.58;102121.28;10553202;28;19920;-65
2022/03/01 19:56:27;;;;;;;;;;;;;;;1.63;67.46;102122.47;10500664;28;20015;-69
2022/03/01 20:01:31;;;;;;;;;;;;;;;1.61;67.03;102118.94;10496680;28;19931;-66
2022/03/01 20:06:34;;;;;;;;;;;;;;;1.42;67.61;102111.09;10496120;28;19930;-68
2022/03/01 20:11:39;;;;;;;;;;;;;;;1.44;66.68;102118.06;10495104;28;20027;-67
2022/03/01 20:16:42;;;;;;;;;;;;;;;1.41;67.10;102114.44;10494746;28;19928;-68
2022/03/01 20:21:45;;;;;;;;;;;;;;;1.38;67.18;102101.50;10497569;28;19924;-68
2022/03/01 20:26:50;;;;;;;;;;;;;;;1.39;68.59;102105.81;10578181;28;19923;-69
2022/03/01 20:31:53;;;;;;;;;;;;;;;1.35;68.84;102106.47;10578562;28;20370;-66
2022/03/01 20:36:56;;;;;;;;;;;;;;;1.42;69.24;102104.31;10578940;28;20254;-67
2022/03/01 20:42:01;;;;;;;;;;;;;;;1.34;69.02;102100.47;10563875;28;19926;-66
2022/03/01 20:47:04;;;;;;;;;;;;;;;1.28;69.02;102100.09;10538910;28;20015;-68
2022/03/01 20:52:07;;;;;;;;;;;;;;;1.32;69.82;102096.94;10538798;28;20262;-68
2022/03/01 20:57:12;;;;;;;;;;;;;;;1.26;70.48;102088.06;10538233;28;20399;-67
2022/03/01 21:02:16;;;;;;;;;;;;;;;1.20;70.97;102083.47;10539001;28;19920;-68
2022/03/01 21:07:19;;;;;;;;;;;;;;;1.07;72.07;102083.59;10538741;28;19927;-68
2022/03/01 21:12:24;;;;;;;;;;;;;;;1.11;73.35;102078.75;10538100;28;19938;-68
2022/03/01 21:17:27;;;;;;;;;;;;;;;1.01;73.78;102080.69;10537929;28;20270;-66
2022/03/01 21:22:30;;;;;;;;;;;;;;;0.99;73.37;102078.06;10546360;28;19997;-65
2022/03/01 21:27:35;;;;;;;;;;;;;;;0.94;72.24;102079.47;10587911;28;19950;-69
2022/03/01 21:32:38;;;;;;;;;;;;;;;0.92;73.24;102075.97;10587411;28;20327;-69
2022/03/01 21:37:42;;;;;;;;;;;;;;;0.92;71.66;102069.97;10587111;28;19923;-69
2022/03/01 21:42:47;;;;;;;;;;;;;;;0.98;73.06;102060.94;10586989;28;19919;-68
2022/03/01 21:47:50;;;;;;;;;;;;;;;0.96;72.72;102064.22;10526985;28;19977;-69
2022/03/01 21:52:53;;;;;;;;;;;;;;;0.70;73.29;102065.34;10502565;28;19954;-63
2022/03/01 21:57:58;;;;;;;;;;;;;;;0.69;74.50;102057.59;10502438;28;20010;-64
2022/03/01 22:03:02;;;;;;;;;;;;;;;0.77;75.01;102054.66;10502679;28;19924;-65
2022/03/01 22:08:05;;;;;;;;;;;;;;;0.67;73.58;102049.84;10501911;28;19931;-67
2022/03/01 22:13:10;;;;;;;;;;;;;;;0.59;75.04;102047.63;10501983;28;19920;-65
2022/03/01 22:18:13;;;;;;;;;;;;;;;0.50;74.56;102045.44;10501792;28;19920;-65
2022/03/01 22:23:16;;;;;;;;;;;;;;;0.49;76.38;102038.56;10528022;28;19920;-63
2022/03/01 22:28:21;;;;;;;;;;;;;;;0.44;76.02;102037.44;10584869;28;20353;-66
2022/03/01 22:33:24;;;;;;;;;;;;;;;0.52;76.00;102030.22;10584612;28;20007;-64
2022/03/01 22:38:28;;;;;;;;;;;;;;;0.55;76.16;102030.38;10584477;28;20339;-66
2022/03/01 22:43:32;;;;;;;;;;;;;;;0.41;75.71;102013.41;10584848;28;19919;-67
2022/03/01 22:48:35;;;;;;;;;;;;;;;0.44;77.32;102014.44;10584337;28;19934;-66
2022/03/01 22:53:39;;;;;;;;;;;;;;;0.33;76.75;102000.19;10584196;28;19924;-65
2022/03/01 22:58:43;;;;;;;;;;;;;;;0.18;76.57;101998.44;10584698;28;19930;-66
2022/03/01 23:03:48;;;;;;;;;;;;;;;0.06;76.86;102002.81;10583854;28;19919;-69
2022/03/01 23:08:51;;;;;;;;;;;;;;;0.00;77.57;101996.56;10583614;28;19934;-66
2022/03/01 23:13:55;;;;;;;;;;;;;;;-0.12;77.90;101988.22;10583609;28;19920;-69
2022/03/01 23:18:58;;;;;;;;;;;;;;;-0.14;77.57;101994.88;10583100;28;19926;-67
2022/03/01 23:24:01;;;;;;;;;;;;;;;-0.11;77.98;101995.09;10583206;28;19919;-66
2022/03/01 23:29:06;;;;;;;;;;;;;;;-0.19;78.29;101980.97;10570776;28;19954;-70
2022/03/01 23:34:10;;;;;;;;;;;;;;;-0.06;80.28;101980.94;10540617;28;19924;-66
2022/03/01 23:39:13;;;;;;;;;;;;;;;-0.06;81.39;101970.72;10577326;28;19929;-67
2022/03/01 23:44:17;;;;;;;;;;;;;;;-0.07;81.05;101971.50;10582453;28;20014;-67
2022/03/01 23:49:21;;;;;;;;;;;;;;;0.03;80.09;101972.03;10581900;28;19919;-68
2022/03/01 23:54:24;;;;;;;;;;;;;;;0.03;80.29;101975.47;10582608;28;19919;-67
2022/03/01 23:59:30;;;;;;;;;;;;;;;-0.03;80.57;101983.66;10582192;28;19923;-69
